Weather observations for the past three days for
Monroe County Airport
Imperial (Metric)
Date Time (edt) Wind (mph) Vis. (mi.) Weather Sky Cond. Temperature (ºF) Relative Humidity Wind Chill (°F) Heat Index (°F) Pressure Precipitation (in)
Air Dwpt 6 hour altimeter (in) sea level (mb) 1 hr 3 hr 6 hr
Max. Min.
10 10:35 Calm 10.00 Fair CLR 69.8 64.4 83% 30.05 0.0
10 10:15 Calm 10.00 Fair CLR 69.8 64.4 83% 30.05 0.0
10 09:55 S 5 10.00 Fair CLR 68 64.4 88% 30.05 0.0
10 09:35 Vrbl 5 10.00 Fair CLR 66.2 64.4 94% 30.06 0.0
10 09:15 Calm 10.00 Fair CLR 64.4 64.4 100% 30.06 0.0
10 08:55 Calm 10.00 Fair CLR 60.8 60.8 100% 30.05 0.0
10 08:35 Calm 10.00 Fair CLR 59 59 100% 30.05 0.0
10 08:15 Calm 9.00 Fair CLR 57.2 57.2 100% 30.05 0.0
10 07:55 Calm 2.50 Fog/Mist FEW040 55.4 55.4 100% 30.04 0.0
10 07:35 Calm 0.75 Fog/Mist BKN002 OVC040 53.6 53.6 100% 30.03 0.0
10 07:15 Calm 0.15 Fog OVC002 53.6 53.6 100% 30.02 0.0
10 06:55 Calm 0.15 Fog OVC002 53.6 53.6 100% 30.01 0.0
10 06:35 Calm 0.15 Fog OVC002 53.6 53.6 100% 30 0.0
10 06:15 Calm 0.15 Fog OVC001 51.8 51.8 100% 30 0.0
10 05:55 Calm 0.50 Fog OVC002 53.6 53.6 100% 29.99 0.0
10 05:35 Calm 0.15 Fog OVC001 53.6 53.6 100% 29.98 0.0
10 05:15 Calm 0.25 Fog VV002 53.6 53.6 100% 29.97 0.0
10 04:55 Calm 0.15 Fog VV000 55.4 55.4 100% 29.97 0.0
10 04:35 Calm 0.75 Fog/Mist VV005 55.4 55.4 100% 29.96 0.0
10 04:15 Calm 0.50 Fog/Mist VV005 55.4 55.4 100% 29.96 0.0
10 03:55 Calm 2.00 Fog/Mist CLR 57.2 57.2 100% 29.95 0.0
10 03:35 Calm 0.15 Fog VV000 57.2 57.2 100% 29.95 0.0
10 03:15 Calm 7.00 Fair CLR 57.2 57.2 100% 29.94 0.0
10 02:55 Calm 0.25 Fog VV002 57.2 57.2 100% 29.94 0.0
10 02:35 Calm 5.00 Fog/Mist CLR 59 59 100% 29.94 0.0
10 02:15 Calm 10.00 Fair CLR 59 59 100% 29.94 0.0
10 01:55 W 5 10.00 Fair CLR 59 59 100% 29.94 0.0
10 01:35 SW 5 10.00 Fair CLR 60.8 60.8 100% 29.95 0.0
10 01:15 SW 5 10.00 Fair CLR 60.8 60.8 100% 29.95 0.0
10 00:55 Vrbl 3 10.00 Fair CLR 62.6 62.6 100% 29.95 0.0
10 00:35 SW 5 10.00 Fair CLR 60.8 60.8 100% 29.95 0.0
10 00:15 SW 6 10.00 A Few Clouds FEW050 62.6 62.6 100% 29.95 0.0
09 23:55 SW 6 10.00 A Few Clouds FEW055 62.6 62.6 100% 29.94 0.0
09 23:35 SW 6 10.00 Fair CLR 62.6 62.6 100% 29.94 0.0
09 23:15 SW 5 10.00 Fair CLR 62.6 62.6 100% 29.94 0.0
09 22:55 SW 6 10.00 Fair CLR 62.6 62.6 100% 29.94 0.0
09 22:35 W 5 10.00 Fair CLR 62.6 62.6 100% 29.93 0.0
09 22:15 W 5 10.00 Fair CLR 62.6 62.6 100% 29.93 0.0
09 21:55 W 7 10.00 Fair CLR 64.4 62.6 94% 29.92 0.0
09 21:35 SW 6 10.00 Fair CLR 64.4 62.6 94% 29.91 0.0
09 21:15 SW 7 10.00 Fair CLR 66.2 62.6 88% 29.9 0.0
09 20:55 SW 7 10.00 Fair CLR 68 62.6 83% 29.89 0.0
09 20:35 SW 8 10.00 Fair CLR 68 62.6 83% 29.88 0.0
09 20:15 SW 6 G 13 10.00 A Few Clouds FEW055 FEW070 68 62.6 83% 29.88 0.0
09 19:55 SW 7 G 13 10.00 Partly Cloudy SCT055 SCT065 69.8 60.8 73% 29.87 0.0
09 19:35 W 5 10.00 Fair CLR 71.6 57.2 61% 29.86 0.0
09 19:15 W 3 10.00 Fair CLR 73.4 57.2 57% 29.86 0.0
09 18:55 NW 3 10.00 Fair CLR 73.4 57.2 57% 29.85 0.0
09 18:35 NW 5 10.00 Fair CLR 73.4 55.4 53% 29.85 0.0
09 18:15 W 3 10.00 Partly Cloudy SCT050 SCT060 SCT070 75.2 57.2 54% 78 29.85 0.0
09 17:55 W 6 G 12 10.00 Partly Cloudy SCT050 SCT060 75.2 57.2 54% 78 29.85 0.0
09 17:35 Vrbl 6 10.00 Partly Cloudy FEW050 FEW055 SCT065 75.2 57.2 54% 78 29.85 0.0
09 17:15 NW 5 10.00 Fair CLR 75.2 55.4 50% 78 29.84 0.0
09 16:55 W 8 10.00 Fair CLR 75.2 55.4 50% 78 29.83 0.0
09 16:35 W 8 10.00 A Few Clouds FEW050 75.2 55.4 50% 78 29.83 0.0
09 16:15 W 9 10.00 A Few Clouds FEW049 75.2 57.2 54% 78 29.85 0.0
09 15:55 Vrbl 6 G 14 10.00 Fair CLR 75.2 57.2 54% 78 29.86 0.0
09 15:35 SW 10 10.00 Fair CLR 75.2 57.2 54% 78 29.86 0.0
09 15:15 Vrbl 7 G 13 10.00 Partly Cloudy SCT041 SCT055 73.4 57.2 57% 29.86 0.0
09 14:55 SW 12 10.00 Mostly Cloudy SCT040 BKN050 73.4 59 61% 29.87 0.0
09 14:35 SW 8 10.00 Partly Cloudy SCT040 73.4 57.2 57% 29.87 0.0
09 14:15 SW 9 10.00 Partly Cloudy SCT040 SCT050 73.4 59 61% 29.87 0.0
09 13:55 S 9 10.00 Partly Cloudy SCT040 SCT048 71.6 57.2 61% 29.88 0.0
09 13:35 Vrbl 6 G 15 10.00 A Few Clouds FEW036 71.6 57.2 61% 29.87 0.0
09 13:15 SW 8 G 17 10.00 Fair CLR 69.8 59 69% 29.88 0.0
09 12:55 SW 12 10.00 A Few Clouds FEW030 FEW037 69.8 60.8 73% 29.89 0.0
09 12:35 SW 12 G 18 10.00 A Few Clouds FEW027 FEW034 69.8 59 69% 29.89 0.0
09 12:15 SW 9 G 16 10.00 A Few Clouds FEW027 68 59 73% 29.9 0.0
09 11:55 SW 10 10.00 Partly Cloudy SCT024 68 60.8 78% 29.9 0.0
09 11:35 SW 9 10.00 Mostly Cloudy BKN023 BKN028 66.2 59 78% 29.9 0.0
09 11:15 S 14 10.00 A Few Clouds FEW026 FEW030 66.2 59 78% 29.9 0.0
09 10:55 SW 13 G 18 10.00 Partly Cloudy FEW023 SCT029 64.4 59 83% 29.9 0.0
09 10:35 SW 10 G 16 10.00 Overcast OVC030 64.4 59 83% 29.9 0.0
09 10:15 SW 7 G 14 10.00 Overcast OVC030 62.6 59 88% 29.88 0.0
09 09:55 S 9 G 15 10.00 Overcast OVC031 60.8 59 94% 29.87 0.0
09 09:35 S 7 10.00 Overcast OVC031 60.8 59 94% 29.88 0.0
09 09:15 Vrbl 5 10.00 Overcast OVC033 60.8 59 94% 29.89 0.0
09 08:55 SW 6 10.00 Overcast FEW026 OVC034 59 57.2 94% 29.88 0.0
09 08:35 SW 8 10.00 Overcast SCT026 OVC034 57.2 57.2 100% 29.89 0.0
09 08:15 SW 7 10.00 Overcast SCT026 BKN033 OVC065 57.2 57.2 100% 29.89 0.0
09 07:55 W 5 10.00 Overcast SCT026 OVC033 57.2 55.4 94% 29.88 0.0
09 07:35 W 3 10.00 Overcast SCT027 BKN033 OVC065 55.4 55.4 100% 29.88 0.0
09 07:15 S 3 10.00 Overcast FEW024 OVC032 55.4 55.4 100% 29.87 0.0
09 06:55 Calm 10.00 Overcast SCT024 OVC033 53.6 53.6 100% 29.88 0.0
09 06:35 Calm 10.00 Overcast BKN025 OVC033 55.4 55.4 100% 29.88 0.0
09 06:15 Calm 10.00 Overcast SCT027 OVC032 53.6 53.6 100% 29.88 0.0
09 05:55 W 3 10.00 Overcast OVC031 55.4 53.6 94% 29.87 0.0
09 05:35 Calm 10.00 Overcast OVC030 53.6 53.6 100% 29.87 0.0
09 05:15 SW 6 10.00 Overcast OVC027 53.6 53.6 100% 29.88 0.0
09 04:55 Calm 10.00 Mostly Cloudy SCT027 BKN031 BKN090 50 50 100% 29.88 0.0
09 04:35 Calm 10.00 Mostly Cloudy SCT090 BKN110 50 50 100% 29.87 0.0
09 04:15 Calm 10.00 Partly Cloudy SCT100 50 50 100% 29.87 0.0
09 03:55 Calm 10.00 A Few Clouds FEW100 50 50 100% 29.87 0.0
09 03:35 SW 3 10.00 Mostly Cloudy BKN100 50 50 100% 29.86 0.0
09 03:15 Calm 10.00 Overcast OVC100 50 50 100% 29.87 0.0
09 02:55 W 5 10.00 Partly Cloudy SCT100 51.8 51.8 100% 29.87 0.0
09 02:35 Calm 10.00 Fair CLR 50 50 100% 29.87 0.0
09 02:15 W 6 10.00 Fair CLR 50 50 100% 48 29.88 0.0
09 01:55 Calm 10.00 Fair CLR 50 50 100% 29.89 0.0
09 01:35 W 5 10.00 Fair CLR 50 50 100% 49 29.9 0.0
09 01:15 W 5 10.00 A Few Clouds FEW039 50 50 100% 49 29.91 0.0
09 00:55 W 3 10.00 A Few Clouds FEW040 50 50 100% 29.91 0.0
09 00:35 W 5 10.00 A Few Clouds FEW042 50 50 100% 49 29.92 0.0
09 00:15 W 5 10.00 Fair CLR 51.8 51.8 100% 29.92 0.0
08 23:55 Calm 10.00 Fair CLR 51.8 51.8 100% 29.92 0.0
08 23:35 Calm 10.00 Fair CLR 51.8 51.8 100% 29.93 0.0
08 23:15 Calm 10.00 Fair CLR 53.6 51.8 94% 29.93 0.0
08 22:55 Calm 10.00 Fair CLR 53.6 53.6 100% 29.93 0.0
08 22:35 Calm 10.00 Fair CLR 53.6 53.6 100% 29.93 0.0
08 22:15 Calm 10.00 Fair CLR 55.4 53.6 94% 29.93 0.0
08 21:55 Calm 10.00 Fair CLR 55.4 53.6 94% 29.93 0.0
08 21:35 Calm 10.00 Fair CLR 57.2 53.6 88% 29.92 0.0
08 21:15 Calm 10.00 Fair CLR 57.2 53.6 88% 29.92 0.0
08 20:55 Calm 10.00 Fair CLR 59 53.6 82% 29.92 0.0
08 20:35 Calm 10.00 Fair CLR 60.8 50 68% 29.92 0.0
08 20:15 Calm 10.00 Fair CLR 64.4 46.4 52% 29.92 0.0
08 19:55 Calm 10.00 Fair CLR 66.2 44.6 46% 29.92 0.0
08 19:35 W 5 10.00 Fair CLR 68 44.6 43% 29.92 0.0
08 19:15 W 5 10.00 Fair CLR 68 42.8 40% 29.92 0.0
08 18:55 Vrbl 5 10.00 Fair CLR 68 42.8 40% 29.92 0.0
08 18:35 W 6 10.00 Fair CLR 68 41 38% 29.92 0.0
08 18:15 W 8 10.00 Fair CLR 69.8 42.8 38% 29.92 0.0
08 17:55 W 8 10.00 Fair CLR 69.8 42.8 38% 29.92 0.0
08 17:35 W 8 10.00 Fair CLR 69.8 41 35% 29.92 0.0
08 17:15 SW 9 10.00 Fair CLR 69.8 42.8 38% 29.93 0.0
08 16:55 Vrbl 7 10.00 Fair CLR 69.8 41 35% 29.93 0.0
08 16:35 W 9 10.00 Fair CLR 69.8 41 35% 29.93 0.0
08 16:15 SW 6 10.00 Fair CLR 69.8 42.8 38% 29.93 0.0
08 15:55 W 7 10.00 Fair CLR 69.8 41 35% 29.93 0.0
08 15:35 Vrbl 7 10.00 Fair CLR 69.8 42.8 38% 29.95 0.0
08 15:15 W 6 G 13 10.00 Fair CLR 69.8 42.8 38% 29.97 0.0
08 14:55 Vrbl 6 G 12 10.00 Fair CLR 69.8 42.8 38% 29.98 0.0
08 14:35 S 6 G 14 10.00 Fair CLR 68 41 38% 29.99 0.0
08 14:15 S 9 10.00 Fair CLR 68 42.8 40% 29.99 0.0
08 13:55 W 6 10.00 Fair CLR 68 39.2 35% 30 0.0
08 13:15 Vrbl 5 10.00 Fair CLR 66.2 39.2 37% 30.01 0.0
08 12:55 S 3 10.00 Fair CLR 64.4 39.2 40% 30.03 0.0
08 12:35 W 7 10.00 Fair CLR 64.4 41 43% 30.04 0.0
08 12:15 SE 3 G 12 10.00 Fair CLR 64.4 42.8 46% 30.04 0.0
08 11:55 SW 5 10.00 Fair CLR 64.4 48.2 56% 30.06 0.0
08 11:35 Calm 10.00 Fair CLR 62.6 44.6 52% 30.06 0.0
08 11:15 Calm 10.00 Fair CLR 60.8 44.6 55% 30.07 0.0
08 10:55 Calm 10.00 Fair CLR 60.8 51.8 72% 30.07 0.0
08 10:35 Calm 10.00 Fair CLR 57.2 51.8 82% 30.07 0.0
08 10:15 Vrbl 3 10.00 Fair CLR 57.2 53.6 88% 30.07 0.0
08 09:55 Calm 10.00 Fair CLR 55.4 51.8 88% 30.07 0.0
08 09:35 Calm 10.00 A Few Clouds FEW003 51.8 51.8 100% 30.08 0.0
08 09:15 Calm 6.00 Fog/Mist BKN002 50 50 100% 30.08 0.0
08 08:55 Calm 1.50 Fog/Mist OVC002 48.2 48.2 100% 30.07 0.0
08 08:35 Calm 7.00 Mostly Cloudy BKN002 48.2 48.2 100% 30.07 0.0
08 08:15 Calm 1.50 Fog/Mist OVC002 46.4 46.4 100% 30.07 0.0
08 07:55 Calm 3.00 Fog/Mist BKN002 44.6 44.6 100% 30.06 0.0
08 07:35 Calm 9.00 Partly Cloudy SCT002 42.8 42.8 100% 30.05 0.0
08 07:15 Calm 10.00 Mostly Cloudy BKN002 42.8 42.8 100% 30.04 0.0
08 06:55 Calm 10.00 Fair CLR 42.8 42.8 100% 30.03 0.0
08 06:35 Calm 0.50 Fog/Mist VV005 42.8 42.8 100% 30.02 0.0
08 06:15 Calm 1.00 Fog/Mist CLR 41 41 100% 30.01 0.0
08 05:55 Calm 1.25 Fog/Mist CLR 42.8 42.8 100% 30.01 0.0
08 05:35 Calm 8.00 Fair CLR 42.8 42.8 100% 30 0.0
08 05:15 Calm 9.00 Fair CLR 42.8 42.8 100% 30 0.0
08 04:55 Calm 10.00 Fair CLR 44.6 44.6 100% 30 0.0
08 04:35 Calm 9.00 Fair CLR 44.6 44.6 100% 30 0.0
08 04:15 Calm 10.00 Fair CLR 44.6 44.6 100% 30 0.0
08 03:55 Calm 10.00 Fair CLR 44.6 44.6 100% 30 0.0
08 03:35 Calm 10.00 Fair CLR 46.4 46.4 100% 30 0.0
08 03:15 Calm 10.00 Fair CLR 46.4 46.4 100% 30 0.0
08 02:55 Calm 10.00 Fair CLR 46.4 46.4 100% 30.01 0.0
08 02:35 Calm 10.00 Fair CLR 46.4 46.4 100% 30.01 0.0
08 02:15 N 5 10.00 Fair CLR 51.8 46.4 82% 30.01 0.0
08 01:55 NW 3 10.00 Fair CLR 50 48.2 94% 30.01 0.0
08 01:35 Calm 10.00 Fair CLR 51.8 46.4 82% 30.01 0.0
08 01:15 Calm 10.00 Fair CLR 53.6 46.4 77% 30.01 0.0
08 00:55 Calm 10.00 Fair CLR 53.6 46.4 77% 30.01 0.0
08 00:35 Calm 10.00 Fair CLR 53.6 46.4 77% 30.01 0.0
08 00:15 Calm 10.00 Fair CLR 55.4 46.4 72% 30 0.0
07 23:55 Calm 10.00 Fair CLR 55.4 48.2 77% 30 0.0
07 23:35 Calm 10.00 Fair CLR 55.4 48.2 77% 29.99 0.0
07 23:15 NW 6 10.00 Fair CLR 55.4 50 82% 29.99 0.0
07 22:55 NW 5 10.00 Fair CLR 55.4 51.8 88% 29.99 0.0
07 22:35 Calm 10.00 Fair CLR 53.6 53.6 100% 29.99 0.0
07 22:15 Calm 10.00 Partly Cloudy SCT043 SCT055 55.4 55.4 100% 29.99 0.0
07 21:55 Calm 10.00 Overcast BKN041 OVC046 55.4 55.4 100% 29.98 0.0
07 21:35 Calm 10.00 Overcast SCT040 OVC048 57.2 57.2 100% 29.97 0.0
07 21:15 Calm 10.00 Overcast OVC049 57.2 57.2 100% 29.96 0.0
07 20:55 Calm 10.00 Mostly Cloudy SCT048 BKN060 57.2 57.2 100% 29.95 0.0
07 20:35 Calm 10.00 Partly Cloudy SCT060 57.2 57.2 100% 29.95 0.0
07 20:15 Calm 10.00 A Few Clouds FEW060 59 55.4 88% 29.94 0.0
07 19:55 Calm 10.00 A Few Clouds FEW065 62.6 53.6 73% 29.93 0.0
07 19:15 Calm 10.00 A Few Clouds FEW039 FEW048 64.4 50 60% 29.93 0.0
07 18:55 N 3 10.00 Partly Cloudy FEW039 SCT047 64.4 51.8 64% 29.93 0.0
07 18:35 Calm 10.00 A Few Clouds FEW060 64.4 51.8 64% 29.93 0.0
07 18:15 Calm 10.00 Partly Cloudy SCT060 64.4 53.6 68% 29.94 0.0
07 17:55 Calm 10.00 Partly Cloudy SCT055 SCT065 64.4 55.4 73% 29.93 0.0
07 17:35 Vrbl 3 10.00 Mostly Cloudy FEW028 BKN055 BKN065 62.6 53.6 73% 29.93 0.0
07 17:15 NE 6 10.00 Mostly Cloudy FEW028 SCT033 BKN055 62.6 55.4 77% 29.92 0.0
07 16:55 Calm 10.00 Mostly Cloudy SCT034 BKN042 BKN050 64.4 55.4 73% 29.92 0.0
07 16:35 Calm 10.00 Overcast SCT034 BKN048 OVC055 62.6 55.4 77% 29.92 0.0
07 16:15 Calm 10.00 Mostly Cloudy FEW029 BKN035 BKN047 62.6 57.2 83% 29.92 0.0
07 15:55 Vrbl 6 10.00 Partly Cloudy SCT050 62.6 57.2 83% 29.93 0.0
07 15:35 Calm 10.00 Overcast FEW027 SCT040 OVC049 60.8 55.4 83% 29.93 0.0
07 15:15 Vrbl 5 10.00 Overcast FEW015 SCT030 OVC041 60.8 57.2 88% 29.94 0.0
07 14:55 Vrbl 5 10.00 Overcast BKN014 BKN023 OVC043 60.8 59 94% 29.94 0.0
07 14:35 Vrbl 5 10.00 Overcast OVC013 59 57.2 94% 29.93 0.0
07 14:15 N 6 10.00 Overcast OVC013 57.2 57.2 100% 29.94 0.0
07 13:55 N 6 10.00 Overcast OVC015 57.2 57.2 100% 29.96 0.0
07 13:35 N 7 10.00 Mostly Cloudy BKN016 57.2 57.2 100% 29.96 0.0
07 13:15 N 6 10.00 Overcast OVC016 57.2 57.2 100% 29.96 0.0
07 12:55 NE 6 10.00 Overcast FEW008 OVC016 57.2 57.2 100% 29.96 0.0
07 12:35 NE 5 10.00 Overcast FEW007 OVC015 55.4 55.4 100% 29.96 0.0
07 12:15 Vrbl 3 6.00 Fog/Mist FEW011 BKN015 BKN019 55.4 55.4 100% 29.95 0.0
07 11:55 Calm 3.00 Fog/Mist FEW010 SCT015 SCT020 55.4 55.4 100% 29.95 0.0 0.02
07 11:35 N 7 G 13 2.00 Fog/Mist SCT015 55.4 55.4 100% 29.94 0.0
07 11:15 Vrbl 5 1.00 Fog/Mist VV007 55.4 55.4 100% 29.94 0.0
07 10:55 Vrbl 3 1.75 Fog/Mist SCT004 55.4 55.4 100% 29.94 0.0 0.01
Date Time (edt) Wind (mph) Vis. (mi.) Weather Sky Cond. Air Dwpt Max. Min. Relative Humidity Wind Chill (°F) Heat Index (°F) altimeter (in) sea level (mb) 1 hr 3 hr 6 hr
6 hour
Temperature (ºF) Pressure Precipitation (in)